Time;durP1;ratioP1;P1;durP2;ratioP2;P2;SDS_P1;SDS_P2;PMS_P1;PMS_P2;Temp;Humidity;BMP_temperature;BMP_pressure;BME280_temperature;BME280_humidity;BME280_pressure;Samples;Min_cycle;Max_cycle;Signal;HPM_P1;HPM_P2
2022/09/12 00:02:20;;;;;;;;;;;;;;;13.17;83.02;100629.23;1673940;85;20277;-75
2022/09/12 00:04:46;;;;;;;;;;;;;;;13.16;83.02;100632.94;1673278;84;20188;-75
2022/09/12 00:07:12;;;;;;;;;;;;;;;13.16;83.06;100624.38;1675004;84;20548;-75
2022/09/12 00:09:38;;;;;;;;;;;;;;;13.17;83.08;100626.05;1674285;84;20222;-75
2022/09/12 00:12:04;;;;;;;;;;;;;;;13.16;83.11;100620.89;1674842;85;20995;-75
2022/09/12 00:14:30;;;;;;;;;;;;;;;13.15;83.13;100625.41;1653952;86;20468;-75
2022/09/12 00:16:58;;;;;;;;;;;;;;;13.14;83.15;100625.08;1673571;85;20293;-75
2022/09/12 00:19:25;;;;;;;;;;;;;;;13.14;83.18;100624.23;1674822;85;20191;-75
2022/09/12 00:21:50;;;;;;;;;;;;;;;13.12;83.20;100621.77;1669465;84;20487;-75
2022/09/12 00:24:16;;;;;;;;;;;;;;;13.10;83.21;100618.41;1674728;85;21108;-75
2022/09/12 00:26:42;;;;;;;;;;;;;;;13.07;83.22;100616.06;1674600;85;20266;-75
2022/09/12 00:29:12;;;;;;;;;;;;;;;13.07;83.29;100614.73;1675138;85;20175;-75
2022/09/12 00:31:38;;;;;;;;;;;;;;;13.06;83.31;100617.07;1673997;84;20771;-75
2022/09/12 00:34:04;;;;;;;;;;;;;;;13.05;83.31;100615.43;1674563;85;20195;-75
2022/09/12 00:36:29;;;;;;;;;;;;;;;13.04;83.36;100619.11;1673767;85;21208;-75
2022/09/12 00:38:55;;;;;;;;;;;;;;;13.04;83.40;100620.45;1674913;85;20270;-75
2022/09/12 00:41:26;;;;;;;;;;;;;;;13.03;83.41;100619.61;1674810;85;20183;-75
2022/09/12 00:43:55;;;;;;;;;;;;;;;13.04;83.45;100623.13;1673720;85;20212;-75
2022/09/12 00:46:37;;;;;;;;;;;;;;;13.04;83.50;100623.13;1672270;84;20502;-75
2022/09/12 00:49:13;;;;;;;;;;;;;;;13.05;83.50;100623.46;1670156;85;21826;-75
2022/09/12 00:51:39;;;;;;;;;;;;;;;13.04;83.51;100623.13;1669221;85;20214;-75
2022/09/12 00:54:07;;;;;;;;;;;;;;;13.06;83.54;100621.59;1674927;85;20179;-75
2022/09/12 00:56:34;;;;;;;;;;;;;;;13.05;83.54;100624.80;1673192;84;20216;-75
2022/09/12 00:59:04;;;;;;;;;;;;;;;13.05;83.60;100622.12;1675170;85;20219;-75
2022/09/12 01:01:29;;;;;;;;;;;;;;;13.05;83.59;100621.29;1673937;85;21084;-75
2022/09/12 01:03:55;;;;;;;;;;;;;;;13.06;83.63;100623.77;1675305;84;20192;-75
2022/09/12 01:06:26;;;;;;;;;;;;;;;13.07;83.64;100620.08;1675118;85;20241;-75
2022/09/12 01:08:52;;;;;;;;;;;;;;;13.09;83.66;100627.45;1667578;85;20189;-75
2022/09/12 01:11:18;;;;;;;;;;;;;;;13.11;83.69;100621.92;1663345;85;20278;-75
2022/09/12 01:13:44;;;;;;;;;;;;;;;13.11;83.70;100624.10;1675534;84;21104;-75
2022/09/12 01:16:10;;;;;;;;;;;;;;;13.10;83.72;100625.11;1675167;84;20180;-75
2022/09/12 01:19:02;;;;;;;;;;;;;;;13.10;83.73;100623.77;1674940;84;20253;-75
2022/09/12 01:22:03;;;;;;;;;;;;;;;13.10;83.73;100625.61;1675584;84;20207;-75
2022/09/12 01:24:51;;;;;;;;;;;;;;;13.08;83.76;100625.77;1674368;85;20520;-75
2022/09/12 01:27:42;;;;;;;;;;;;;;;13.08;83.81;100621.77;1674672;85;21135;-75
2022/09/12 01:30:30;;;;;;;;;;;;;;;13.07;83.85;100618.75;1676691;84;20183;-75
2022/09/12 01:33:17;;;;;;;;;;;;;;;13.08;83.84;100625.77;1671503;85;20187;-75
2022/09/12 01:36:12;;;;;;;;;;;;;;;13.06;83.87;100623.77;1648081;84;39579;-75
2022/09/12 01:38:42;;;;;;;;;;;;;;;13.08;83.88;100619.08;1679595;84;20195;-75
2022/09/12 01:41:29;;;;;;;;;;;;;;;13.12;83.91;100620.42;1680454;85;21927;-75
2022/09/12 01:44:21;;;;;;;;;;;;;;;13.12;83.94;100613.73;1680863;85;20175;-75
2022/09/12 01:46:51;;;;;;;;;;;;;;;13.13;83.95;100614.03;1680429;84;20172;-75
2022/09/12 01:49:23;;;;;;;;;;;;;;;13.14;83.97;100618.88;1679813;85;20223;-75
2022/09/12 01:52:09;;;;;;;;;;;;;;;13.14;83.95;100613.53;1668118;85;20680;-75
2022/09/12 01:54:47;;;;;;;;;;;;;;;13.12;83.98;100613.73;1680963;85;21258;-75
2022/09/12 01:57:20;;;;;;;;;;;;;;;13.10;83.98;100607.70;1680175;85;20490;-74
2022/09/12 01:59:48;;;;;;;;;;;;;;;13.12;84.03;100611.05;1680349;84;20160;-75
2022/09/12 02:02:15;;;;;;;;;;;;;;;13.13;84.05;100608.67;1680850;85;20491;-74
2022/09/12 02:04:46;;;;;;;;;;;;;;;13.17;84.04;100622.53;1681164;85;20218;-75
2022/09/12 02:07:15;;;;;;;;;;;;;;;13.17;84.08;100626.05;1673561;85;21183;-75
2022/09/12 02:09:45;;;;;;;;;;;;;;;13.16;84.08;100620.36;1664215;84;20498;-75
2022/09/12 02:12:11;;;;;;;;;;;;;;;13.17;84.09;100628.73;1678862;85;20183;-75
2022/09/12 02:14:39;;;;;;;;;;;;;;;13.19;84.10;100620.02;1681166;85;20201;-75
2022/09/12 02:17:12;;;;;;;;;;;;;;;13.19;84.12;100624.55;1679965;85;20223;-75
2022/09/12 02:19:50;;;;;;;;;;;;;;;13.19;84.13;100626.72;1668067;85;21990;-74
2022/09/12 02:22:16;;;;;;;;;;;;;;;13.18;84.14;100623.70;1679760;85;20190;-74
2022/09/12 02:24:45;;;;;;;;;;;;;;;13.20;84.16;100620.33;1679755;85;20186;-73
2022/09/12 02:27:22;;;;;;;;;;;;;;;13.22;84.14;100618.31;1680062;84;20362;-74
2022/09/12 02:29:48;;;;;;;;;;;;;;;13.21;84.16;100613.13;1681376;83;20538;-74
2022/09/12 02:32:27;;;;;;;;;;;;;;;13.21;84.16;100616.64;1679703;85;21213;-74
2022/09/12 02:35:17;;;;;;;;;;;;;;;13.19;84.17;100615.17;1678846;84;20210;-74
2022/09/12 02:37:55;;;;;;;;;;;;;;;13.20;84.21;100612.29;1680084;85;20192;-74
2022/09/12 02:40:21;;;;;;;;;;;;;;;13.19;84.19;100617.34;1680540;85;20182;-74
2022/09/12 02:42:48;;;;;;;;;;;;;;;13.14;84.19;100619.72;1680647;84;20265;-73
2022/09/12 02:45:14;;;;;;;;;;;;;;;13.11;84.20;100616.07;1680955;84;21144;-73
2022/09/12 02:47:55;;;;;;;;;;;;;;;13.10;84.23;100618.91;1680426;85;20818;-75
2022/09/12 02:50:20;;;;;;;;;;;;;;;13.05;84.25;100622.12;1677953;85;20203;-75
2022/09/12 02:52:47;;;;;;;;;;;;;;;12.99;84.27;100618.30;1677353;85;20202;-75
2022/09/12 02:55:13;;;;;;;;;;;;;;;13.00;84.29;100614.62;1680525;85;20195;-75
2022/09/12 02:57:39;;;;;;;;;;;;;;;12.98;84.31;100618.50;1680430;85;21142;-75
2022/09/12 03:00:06;;;;;;;;;;;;;;;12.97;84.33;100619.51;1679012;84;20259;-75
2022/09/12 03:03:02;;;;;;;;;;;;;;;12.96;84.37;100625.86;1680209;85;20179;-75
2022/09/12 03:05:33;;;;;;;;;;;;;;;12.98;84.40;100621.98;1679842;84;20507;-76
2022/09/12 03:08:22;;;;;;;;;;;;;;;12.98;84.44;100611.27;1679768;84;20524;-75
2022/09/12 03:11:04;;;;;;;;;;;;;;;12.96;84.43;100616.49;1662907;84;21168;-75
2022/09/12 03:13:34;;;;;;;;;;;;;;;12.94;84.46;100619.87;1620547;85;20491;-75
2022/09/12 03:16:23;;;;;;;;;;;;;;;12.94;84.46;100613.17;1680500;85;20191;-76
2022/09/12 03:18:55;;;;;;;;;;;;;;;12.91;84.50;100620.23;1681313;84;20466;-75
2022/09/12 03:21:34;;;;;;;;;;;;;;;12.93;84.52;100623.55;1603692;84;20505;-75
2022/09/12 03:24:06;;;;;;;;;;;;;;;12.94;84.54;100615.86;1679722;84;21027;-75
2022/09/12 03:26:48;;;;;;;;;;;;;;;12.95;84.55;100620.17;1678297;85;20233;-75
2022/09/12 03:29:14;;;;;;;;;;;;;;;12.96;84.55;100617.33;1677060;85;20190;-75
2022/09/12 03:31:51;;;;;;;;;;;;;;;12.96;84.55;100617.33;1679545;85;20598;-76
2022/09/12 03:34:18;;;;;;;;;;;;;;;12.96;84.57;100621.84;1679416;85;20233;-75
2022/09/12 03:36:44;;;;;;;;;;;;;;;12.95;84.61;100610.80;1679992;85;21114;-75
2022/09/12 03:39:10;;;;;;;;;;;;;;;12.97;84.62;100611.47;1680904;85;20269;-75
2022/09/12 03:41:36;;;;;;;;;;;;;;;12.93;84.62;100615.52;1679837;85;20205;-75
2022/09/12 03:44:02;;;;;;;;;;;;;;;12.90;84.61;100610.53;1679510;84;20606;-75
2022/09/12 03:46:28;;;;;;;;;;;;;;;12.90;84.65;100619.39;1679268;84;20179;-75
2022/09/12 03:48:53;;;;;;;;;;;;;;;12.89;84.63;100616.88;1680025;85;21885;-75
2022/09/12 03:51:19;;;;;;;;;;;;;;;12.86;84.66;100615.91;1680380;85;20261;-75
2022/09/12 03:53:45;;;;;;;;;;;;;;;12.83;84.66;100621.13;1681140;85;20213;-75
2022/09/12 03:56:11;;;;;;;;;;;;;;;12.77;84.67;100619.67;1680634;84;20253;-75
2022/09/12 03:58:37;;;;;;;;;;;;;;;12.74;84.69;100620.00;1680276;85;20269;-75
2022/09/12 04:01:11;;;;;;;;;;;;;;;12.68;84.74;100619.39;1681561;84;21956;-75
2022/09/12 04:03:39;;;;;;;;;;;;;;;12.65;84.72;100627.77;1680975;85;20535;-75
2022/09/12 04:06:05;;;;;;;;;;;;;;;12.60;84.76;100624.78;1679785;84;20499;-75
2022/09/12 04:08:31;;;;;;;;;;;;;;;12.56;84.79;100628.84;1677322;84;20194;-75
2022/09/12 04:11:08;;;;;;;;;;;;;;;12.52;84.80;100626.50;1679510;85;20212;-75
2022/09/12 04:13:35;;;;;;;;;;;;;;;12.48;84.82;100635.08;1653667;85;22303;-75
2022/09/12 04:16:01;;;;;;;;;;;;;;;12.43;84.85;100632.92;1680537;85;20499;-75
2022/09/12 04:18:27;;;;;;;;;;;;;;;12.36;84.88;100634.63;1680972;84;20219;-75
2022/09/12 04:20:53;;;;;;;;;;;;;;;12.31;84.88;100634.34;1680605;85;20190;-75
2022/09/12 04:23:19;;;;;;;;;;;;;;;12.25;84.93;100633.69;1681156;85;20190;-75
2022/09/12 04:25:48;;;;;;;;;;;;;;;12.22;84.96;100634.53;1679129;84;21056;-75
2022/09/12 04:28:14;;;;;;;;;;;;;;;12.17;84.98;100632.41;1675843;85;20190;-75
2022/09/12 04:30:40;;;;;;;;;;;;;;;12.14;85.01;100638.08;1679627;84;20810;-76
2022/09/12 04:33:06;;;;;;;;;;;;;;;12.09;85.02;100631.59;1675424;84;20178;-75
2022/09/12 04:35:34;;;;;;;;;;;;;;;12.03;85.01;100631.80;1674758;85;20601;-75
2022/09/12 04:38:00;;;;;;;;;;;;;;;12.01;85.04;100636.47;1674569;84;21130;-75
2022/09/12 04:40:28;;;;;;;;;;;;;;;11.99;85.05;100634.48;1676588;84;20202;-75
2022/09/12 04:42:54;;;;;;;;;;;;;;;11.97;85.06;100640.00;1675478;84;20191;-75
2022/09/12 04:45:21;;;;;;;;;;;;;;;11.93;85.06;100645.84;1676333;84;20546;-74
2022/09/12 04:47:47;;;;;;;;;;;;;;;11.92;85.11;100641.03;1655904;85;20221;-75
2022/09/12 04:50:13;;;;;;;;;;;;;;;11.93;85.13;100648.52;1674810;84;21279;-74
2022/09/12 04:52:40;;;;;;;;;;;;;;;11.92;85.14;100641.53;1675442;84;20254;-75
2022/09/12 04:55:07;;;;;;;;;;;;;;;12.01;85.22;100643.16;1673773;84;20219;-76
2022/09/12 04:57:34;;;;;;;;;;;;;;;12.17;85.23;100647.61;1670270;85;20712;-75
2022/09/12 05:00:00;;;;;;;;;;;;;;;12.09;85.16;100645.80;1666837;85;20467;-74
2022/09/12 05:02:26;;;;;;;;;;;;;;;12.58;85.51;100650.89;1679022;85;21077;-74
2022/09/12 05:04:53;;;;;;;;;;;;;;;13.63;85.73;100647.37;1680934;85;20217;-77
2022/09/12 05:07:18;;;;;;;;;;;;;;;14.56;85.57;100652.97;1679532;85;20226;-74
2022/09/12 05:09:44;;;;;;;;;;;;;;;15.42;85.26;100649.55;1678761;84;20250;-74
2022/09/12 05:12:10;;;;;;;;;;;;;;;16.15;84.84;100648.70;1680092;85;20221;-75
2022/09/12 05:14:36;;;;;;;;;;;;;;;16.53;84.42;100651.75;1674997;84;21340;-75
2022/09/12 05:17:03;;;;;;;;;;;;;;;16.93;84.13;100657.05;1680270;85;20249;-75
2022/09/12 05:19:29;;;;;;;;;;;;;;;17.47;83.79;100654.19;1679641;84;20495;-75
2022/09/12 05:21:55;;;;;;;;;;;;;;;17.84;83.25;100651.86;1670128;84;20526;-75
2022/09/12 05:24:21;;;;;;;;;;;;;;;18.02;82.79;100648.50;1671747;84;20218;-75
2022/09/12 05:26:47;;;;;;;;;;;;;;;18.03;82.27;100650.16;1678695;84;21176;-75
2022/09/12 05:29:12;;;;;;;;;;;;;;;18.30;81.98;100660.66;1678008;84;20285;-75
2022/09/12 05:31:39;;;;;;;;;;;;;;;18.68;81.05;100651.80;1680346;85;20292;-75
2022/09/12 05:34:08;;;;;;;;;;;;;;;18.68;79.81;100653.16;1679469;85;20227;-75
2022/09/12 05:36:32;;;;;;;;;;;;;;;18.42;79.88;100658.95;1680757;85;20203;-75
2022/09/12 05:38:58;;;;;;;;;;;;;;;18.03;80.10;100659.09;1680137;85;21115;-75
2022/09/12 05:41:25;;;;;;;;;;;;;;;17.81;80.32;100660.38;1680813;84;20308;-75
2022/09/12 05:43:54;;;;;;;;;;;;;;;17.70;80.39;100662.38;1680807;85;20483;-75
2022/09/12 05:46:21;;;;;;;;;;;;;;;17.46;80.31;100663.30;1661935;84;20182;-74
2022/09/12 05:48:47;;;;;;;;;;;;;;;17.53;80.48;100665.16;1681224;85;20198;-75
2022/09/12 05:51:18;;;;;;;;;;;;;;;17.59;80.32;100669.77;1680025;84;21121;-75
2022/09/12 05:53:42;;;;;;;;;;;;;;;17.40;80.26;100672.23;1680343;85;20496;-75
2022/09/12 05:56:12;;;;;;;;;;;;;;;17.19;80.15;100672.44;1679901;85;21062;-75
2022/09/12 05:58:41;;;;;;;;;;;;;;;16.87;80.09;100673.20;1680887;84;20877;-75
2022/09/12 06:01:10;;;;;;;;;;;;;;;16.52;80.05;100671.63;1678470;85;20281;-75
2022/09/12 06:03:38;;;;;;;;;;;;;;;16.25;80.06;100678.77;1680017;85;21816;-76
2022/09/12 06:06:04;;;;;;;;;;;;;;;16.03;79.97;100673.16;1679003;84;20214;-75
2022/09/12 06:08:31;;;;;;;;;;;;;;;15.79;79.95;100674.47;1676445;84;20214;-75
2022/09/12 06:11:04;;;;;;;;;;;;;;;15.59;79.92;100676.16;1679744;84;20765;-75
2022/09/12 06:13:34;;;;;;;;;;;;;;;15.42;80.02;100673.74;1679854;84;20499;-75
2022/09/12 06:16:05;;;;;;;;;;;;;;;15.32;80.14;100675.10;1679251;85;20830;-75
2022/09/12 06:18:31;;;;;;;;;;;;;;;15.26;80.18;100683.95;1681056;85;20200;-75
2022/09/12 06:21:05;;;;;;;;;;;;;;;15.20;80.12;100692.25;1681153;84;20199;-74
2022/09/12 06:23:32;;;;;;;;;;;;;;;15.17;80.25;100693.98;1675992;84;20889;-75
2022/09/12 06:25:58;;;;;;;;;;;;;;;15.17;80.34;100686.42;1680242;84;20207;-75
2022/09/12 06:28:24;;;;;;;;;;;;;;;15.16;80.35;100686.13;1679548;84;21958;-75
2022/09/12 06:30:50;;;;;;;;;;;;;;;15.14;80.44;100690.34;1680718;84;20206;-75
2022/09/12 06:33:16;;;;;;;;;;;;;;;15.10;80.46;100689.56;1680818;84;20249;-75
2022/09/12 06:35:42;;;;;;;;;;;;;;;15.08;80.56;100690.28;1680836;85;20201;-75
2022/09/12 06:38:08;;;;;;;;;;;;;;;15.03;80.53;100691.35;1680853;84;20768;-75
2022/09/12 06:40:34;;;;;;;;;;;;;;;15.04;80.59;100685.80;1681206;84;21827;-75
2022/09/12 06:43:00;;;;;;;;;;;;;;;15.09;80.74;100689.27;1664707;85;20458;-75
2022/09/12 06:45:26;;;;;;;;;;;;;;;15.11;80.83;100690.73;1681262;84;20271;-75
2022/09/12 06:47:52;;;;;;;;;;;;;;;15.09;80.84;100694.13;1681066;84;20176;-74
2022/09/12 06:50:18;;;;;;;;;;;;;;;15.09;80.88;100687.41;1680803;84;20239;-74
2022/09/12 06:52:44;;;;;;;;;;;;;;;15.14;80.92;100690.34;1681212;85;21182;-75
2022/09/12 06:55:10;;;;;;;;;;;;;;;15.16;80.95;100694.19;1680959;85;20182;-74
2022/09/12 06:57:37;;;;;;;;;;;;;;;15.20;81.04;100683.38;1679369;84;20228;-75
2022/09/12 07:00:04;;;;;;;;;;;;;;;15.22;81.10;100688.04;1681242;85;20165;-75
2022/09/12 07:02:31;;;;;;;;;;;;;;;15.27;81.14;100690.45;1679979;84;20212;-75
2022/09/12 07:04:56;;;;;;;;;;;;;;;15.34;81.15;100694.03;1680121;84;21981;-75
2022/09/12 07:07:23;;;;;;;;;;;;;;;15.39;81.17;100695.64;1680075;84;20289;-75
2022/09/12 07:09:49;;;;;;;;;;;;;;;15.41;81.22;100697.61;1679664;85;20590;-75
2022/09/12 07:12:15;;;;;;;;;;;;;;;15.48;81.23;100699.03;1679158;84;20284;-75
2022/09/12 07:14:41;;;;;;;;;;;;;;;15.59;81.25;100694.98;1679496;85;20191;-75
2022/09/12 07:17:07;;;;;;;;;;;;;;;15.68;81.26;100692.48;1675879;84;21199;-75
2022/09/12 07:19:33;;;;;;;;;;;;;;;15.76;81.20;100701.22;1680051;85;20194;-75
2022/09/12 07:22:00;;;;;;;;;;;;;;;15.82;81.20;100695.59;1680203;84;20194;-74
2022/09/12 07:24:26;;;;;;;;;;;;;;;15.89;81.18;100702.67;1679045;83;20708;-74
2022/09/12 07:26:52;;;;;;;;;;;;;;;15.99;81.21;100696.94;1677121;84;20318;-74
2022/09/12 07:29:18;;;;;;;;;;;;;;;16.07;81.21;100706.20;1679354;84;21169;-73
2022/09/12 07:31:44;;;;;;;;;;;;;;;16.16;81.10;100704.16;1675839;83;20205;-74
2022/09/12 07:34:10;;;;;;;;;;;;;;;16.25;81.07;100709.72;1692746;83;20814;-73
2022/09/12 07:36:36;;;;;;;;;;;;;;;16.38;81.06;100700.36;1685536;84;20513;-74
2022/09/12 07:39:01;;;;;;;;;;;;;;;16.56;80.99;100705.23;1691224;84;20158;-73
2022/09/12 07:41:29;;;;;;;;;;;;;;;16.64;80.86;100711.25;1693892;84;20946;-73
2022/09/12 07:43:57;;;;;;;;;;;;;;;16.85;80.84;100710.31;1693820;83;20229;-73
2022/09/12 07:46:24;;;;;;;;;;;;;;;16.93;80.68;100705.55;1694464;83;20187;-73
2022/09/12 07:48:51;;;;;;;;;;;;;;;17.11;80.70;100706.31;1691957;84;20250;-73
2022/09/12 07:51:17;;;;;;;;;;;;;;;17.35;80.62;100712.45;1692856;83;20198;-74
2022/09/12 07:53:43;;;;;;;;;;;;;;;17.47;80.41;100718.07;1693686;83;21146;-73
2022/09/12 07:56:09;;;;;;;;;;;;;;;17.56;80.32;100718.71;1692916;84;20292;-74
2022/09/12 07:58:36;;;;;;;;;;;;;;;17.53;80.13;100726.67;1692833;83;20194;-75
2022/09/12 08:01:07;;;;;;;;;;;;;;;17.46;79.94;100719.94;1702315;83;20184;-74
2022/09/12 08:03:34;;;;;;;;;;;;;;;17.55;79.89;100723.78;1694634;83;20173;-75
2022/09/12 08:06:10;;;;;;;;;;;;;;;17.63;79.75;100718.19;1694209;83;21136;-75
2022/09/12 08:08:37;;;;;;;;;;;;;;;17.72;79.58;100723.70;1698933;83;20195;-75
2022/09/12 08:11:05;;;;;;;;;;;;;;;17.85;79.40;100718.29;1696508;83;20550;-75
2022/09/12 08:13:31;;;;;;;;;;;;;;;17.97;79.22;100727.42;1698513;83;20741;-75
2022/09/12 08:15:58;;;;;;;;;;;;;;;18.02;79.00;100716.81;1696170;83;20182;-75
2022/09/12 08:18:26;;;;;;;;;;;;;;;18.00;78.82;100713.50;1698235;83;21139;-75
2022/09/12 08:20:59;;;;;;;;;;;;;;;18.00;78.70;100718.90;1692443;83;20167;-74
2022/09/12 08:23:26;;;;;;;;;;;;;;;18.00;78.46;100725.65;1696526;83;20512;-74
2022/09/12 08:25:54;;;;;;;;;;;;;;;17.87;78.17;100721.63;1693677;83;20214;-74
2022/09/12 08:28:20;;;;;;;;;;;;;;;17.85;77.98;100728.56;1697047;83;20206;-74
2022/09/12 08:30:46;;;;;;;;;;;;;;;17.88;77.75;100721.91;1696085;83;21148;-73
2022/09/12 08:33:12;;;;;;;;;;;;;;;17.91;77.69;100722.84;1692702;82;20320;-75
2022/09/12 08:35:38;;;;;;;;;;;;;;;17.89;77.46;100725.77;1694311;82;20197;-74
2022/09/12 08:38:04;;;;;;;;;;;;;;;17.84;77.31;100723.37;1693537;83;20280;-75
2022/09/12 08:40:30;;;;;;;;;;;;;;;17.79;77.09;100728.58;1689420;83;20187;-75
2022/09/12 08:43:06;;;;;;;;;;;;;;;17.80;77.03;100726.20;1691673;83;21019;-75
2022/09/12 08:45:35;;;;;;;;;;;;;;;17.85;76.98;100721.83;1689947;83;20204;-75
2022/09/12 08:48:03;;;;;;;;;;;;;;;18.00;76.84;100724.30;1687318;83;20206;-75
2022/09/12 08:50:29;;;;;;;;;;;;;;;18.12;76.71;100721.25;1690974;83;20683;-75
2022/09/12 08:53:03;;;;;;;;;;;;;;;18.08;76.45;100720.03;1692852;83;20549;-75
2022/09/12 08:55:32;;;;;;;;;;;;;;;18.11;76.24;100715.56;1693311;83;21123;-75
2022/09/12 08:57:59;;;;;;;;;;;;;;;18.12;76.02;100722.59;1691822;83;20510;-75
2022/09/12 09:00:30;;;;;;;;;;;;;;;18.16;75.89;100715.73;1695314;83;20460;-75
2022/09/12 09:03:22;;;;;;;;;;;;;;;18.29;75.71;100721.13;1692943;83;20433;-75
2022/09/12 09:05:50;;;;;;;;;;;;;;;18.39;75.54;100720.67;1690215;83;20245;-74
2022/09/12 09:08:21;;;;;;;;;;;;;;;18.31;75.29;100719.03;1693245;83;20831;-75
2022/09/12 09:10:51;;;;;;;;;;;;;;;18.27;75.13;100716.95;1690939;83;20155;-74
2022/09/12 09:16:38;;;;;;;;;;;;;;;18.32;74.89;100715.30;1693697;83;20505;-75
2022/09/12 09:19:13;;;;;;;;;;;;;;;18.42;74.58;100718.37;1694270;83;20213;-74
2022/09/12 09:21:46;;;;;;;;;;;;;;;18.40;74.46;100716.94;1691733;83;21078;-75
2022/09/12 09:24:14;;;;;;;;;;;;;;;18.36;74.29;100716.53;1692457;83;20175;-75
2022/09/12 09:26:55;;;;;;;;;;;;;;;18.42;74.18;100715.67;1688010;83;20194;-75
2022/09/12 09:29:24;;;;;;;;;;;;;;;18.46;73.94;100710.16;1695958;83;20175;-75
2022/09/12 09:31:51;;;;;;;;;;;;;;;18.65;73.91;100713.00;1690412;84;20202;-74
2022/09/12 09:34:23;;;;;;;;;;;;;;;18.88;73.68;100714.67;1670887;84;21074;-74
2022/09/12 09:37:05;;;;;;;;;;;;;;;19.09;73.55;100717.03;1672920;84;20543;-74
2022/09/12 09:39:41;;;;;;;;;;;;;;;19.36;73.22;100714.45;1662825;85;20566;-74
2022/09/12 09:42:22;;;;;;;;;;;;;;;19.19;72.53;100718.73;1670471;85;20207;-74
2022/09/12 09:44:48;;;;;;;;;;;;;;;19.03;72.32;100722.49;1672704;85;20615;-74
2022/09/12 09:47:14;;;;;;;;;;;;;;;18.98;72.08;100713.67;1670909;85;21166;-74
2022/09/12 09:49:40;;;;;;;;;;;;;;;18.97;71.88;100716.06;1670590;85;20257;-74
2022/09/12 09:52:07;;;;;;;;;;;;;;;18.92;71.64;100706.44;1670469;85;20180;-74
2022/09/12 09:54:39;;;;;;;;;;;;;;;18.90;71.46;100707.99;1672701;85;20710;-74
2022/09/12 09:57:25;;;;;;;;;;;;;;;18.84;71.36;100699.41;1669912;85;20191;-74
2022/09/12 09:59:51;;;;;;;;;;;;;;;18.94;71.24;100701.63;1669267;85;21248;-75
2022/09/12 10:02:25;;;;;;;;;;;;;;;19.11;71.07;100702.77;1655147;85;20193;-75
2022/09/12 10:04:56;;;;;;;;;;;;;;;19.29;70.93;100696.09;1665655;84;20500;-75
2022/09/12 10:07:22;;;;;;;;;;;;;;;19.57;70.71;100694.86;1667444;85;20184;-75
2022/09/12 10:10:08;;;;;;;;;;;;;;;19.63;70.34;100691.29;1672114;85;20270;-75
2022/09/12 10:12:35;;;;;;;;;;;;;;;19.64;70.02;100697.81;1662820;85;21301;-73
2022/09/12 10:15:03;;;;;;;;;;;;;;;19.62;69.59;100689.62;1671615;84;20233;-74
2022/09/12 10:17:41;;;;;;;;;;;;;;;19.70;69.39;100689.34;1670391;84;20391;-74
2022/09/12 10:20:30;;;;;;;;;;;;;;;19.66;69.09;100691.67;1672014;85;20527;-74
2022/09/12 10:22:58;;;;;;;;;;;;;;;19.62;68.68;100689.62;1672433;85;20613;-74
2022/09/12 10:25:24;;;;;;;;;;;;;;;19.52;68.30;100695.54;1670574;84;21910;-73
2022/09/12 10:27:58;;;;;;;;;;;;;;;19.47;67.85;100685.06;1672258;84;20840;-74
2022/09/12 10:30:26;;;;;;;;;;;;;;;19.55;67.71;100687.50;1671768;85;20192;-74
2022/09/12 10:32:59;;;;;;;;;;;;;;;19.55;67.42;100686.14;1677277;84;20195;-75
2022/09/12 10:35:30;;;;;;;;;;;;;;;19.56;67.28;100684.58;1680838;84;20233;-78
2022/09/12 10:38:01;;;;;;;;;;;;;;;19.65;67.11;100690.53;1681858;85;21331;-79
2022/09/12 10:40:33;;;;;;;;;;;;;;;19.60;66.91;100692.53;1682049;84;20485;-79
2022/09/12 10:42:59;;;;;;;;;;;;;;;19.64;66.82;100688.86;1680465;84;20231;-78
2022/09/12 10:45:34;;;;;;;;;;;;;;;19.62;66.63;100686.91;1682188;85;20995;-78
2022/09/12 10:48:01;;;;;;;;;;;;;;;19.65;66.48;100686.47;1680393;84;20573;-78
2022/09/12 10:50:33;;;;;;;;;;;;;;;19.53;66.30;100686.35;1688457;85;21250;-78
2022/09/12 10:53:21;;;;;;;;;;;;;;;19.57;66.27;100688.09;1687703;84;20202;-78
2022/09/12 10:56:00;;;;;;;;;;;;;;;19.67;66.25;100684.35;1688214;83;20480;-78
2022/09/12 10:58:29;;;;;;;;;;;;;;;19.70;65.98;100687.45;1672308;85;20991;-78
2022/09/12 11:01:00;;;;;;;;;;;;;;;19.53;65.75;100684.20;1687679;85;20222;-78
2022/09/12 11:03:36;;;;;;;;;;;;;;;19.52;65.62;100685.24;1689729;85;21345;-77
2022/09/12 11:06:02;;;;;;;;;;;;;;;19.49;65.45;100685.16;1689154;85;20190;-78
2022/09/12 11:08:36;;;;;;;;;;;;;;;19.51;65.24;100687.63;1687913;84;20183;-78
2022/09/12 11:11:15;;;;;;;;;;;;;;;19.54;65.05;100683.12;1685330;85;20611;-78
2022/09/12 11:13:56;;;;;;;;;;;;;;;19.53;64.90;100689.61;1689640;83;20565;-78
2022/09/12 11:16:38;;;;;;;;;;;;;;;19.54;64.70;100683.95;1688851;84;21005;-78
2022/09/12 11:19:24;;;;;;;;;;;;;;;19.44;64.47;100675.00;1657022;85;21352;-78
2022/09/12 11:22:21;;;;;;;;;;;;;;;19.41;64.38;100671.39;1663970;85;20209;-78
2022/09/12 11:25:07;;;;;;;;;;;;;;;19.39;64.22;100673.44;1676650;85;20725;-78
2022/09/12 11:27:46;;;;;;;;;;;;;;;19.35;64.03;100673.56;1687724;83;20518;-79
2022/09/12 11:30:13;;;;;;;;;;;;;;;19.33;64.00;100675.67;1685163;83;22112;-78
2022/09/12 11:33:01;;;;;;;;;;;;;;;19.34;63.95;100670.58;1688079;83;20182;-78
2022/09/12 11:35:30;;;;;;;;;;;;;;;19.40;63.94;100662.92;1689439;83;20182;-78
2022/09/12 11:38:33;;;;;;;;;;;;;;;19.57;63.93;100660.52;1687317;85;20181;-78
2022/09/12 11:41:02;;;;;;;;;;;;;;;19.63;63.81;100666.94;1688868;83;20561;-78
2022/09/12 11:43:44;;;;;;;;;;;;;;;19.75;63.78;100665.14;1689341;85;21361;-78
2022/09/12 11:46:39;;;;;;;;;;;;;;;19.75;63.71;100661.91;1679397;84;20502;-78
2022/09/12 11:49:14;;;;;;;;;;;;;;;19.79;63.65;100659.58;1662039;85;20478;-78
2022/09/12 11:51:46;;;;;;;;;;;;;;;19.91;63.60;100658.61;1681605;84;20184;-78
2022/09/12 11:54:19;;;;;;;;;;;;;;;20.06;63.54;100656.89;1688230;84;20473;-77
2022/09/12 11:56:45;;;;;;;;;;;;;;;20.13;63.43;100660.87;1687549;84;22625;-79
2022/09/12 11:59:27;;;;;;;;;;;;;;;20.21;63.39;100654.64;1689675;84;20198;-78
2022/09/12 12:01:55;;;;;;;;;;;;;;;20.31;63.28;100660.37;1688176;83;20281;-78
2022/09/12 12:04:24;;;;;;;;;;;;;;;20.25;62.99;100657.20;1689458;85;20237;-78
2022/09/12 12:07:06;;;;;;;;;;;;;;;20.29;63.00;100654.89;1688564;83;20218;-79
2022/09/12 12:09:32;;;;;;;;;;;;;;;20.44;62.89;100661.56;1673631;85;21517;-79
2022/09/12 12:12:01;;;;;;;;;;;;;;;20.50;62.66;100657.66;1685782;85;20189;-77
2022/09/12 12:14:40;;;;;;;;;;;;;;;20.58;62.52;100657.34;1663180;85;20194;-76
2022/09/12 12:17:18;;;;;;;;;;;;;;;20.44;62.17;100654.78;1688208;85;20249;-75
2022/09/12 12:19:45;;;;;;;;;;;;;;;20.09;62.03;100660.50;1688500;85;20574;-77
2022/09/12 12:22:17;;;;;;;;;;;;;;;19.87;62.00;100659.30;1687826;83;21388;-78
2022/09/12 12:25:05;;;;;;;;;;;;;;;19.75;62.09;100662.42;1689535;85;20222;-78
2022/09/12 12:27:52;;;;;;;;;;;;;;;19.68;62.11;100660.31;1688321;83;20495;-78
2022/09/12 12:30:34;;;;;;;;;;;;;;;19.53;62.10;100661.20;1687385;85;20213;-78
2022/09/12 12:33:12;;;;;;;;;;;;;;;19.31;62.17;100664.78;1689650;85;20190;-78
2022/09/12 12:35:42;;;;;;;;;;;;;;;19.13;62.23;100669.59;1689532;83;20609;-77
2022/09/12 12:38:32;;;;;;;;;;;;;;;18.96;62.30;100669.83;1689489;84;20185;-78
2022/09/12 12:41:17;;;;;;;;;;;;;;;18.85;62.40;100670.51;1689006;85;20197;-78
2022/09/12 12:43:46;;;;;;;;;;;;;;;18.72;62.49;100665.99;1680301;85;20194;-77
2022/09/12 12:46:14;;;;;;;;;;;;;;;18.59;62.56;100662.02;1688846;83;20474;-77
2022/09/12 12:49:17;;;;;;;;;;;;;;;18.55;62.64;100659.95;1680541;84;21163;-76
2022/09/12 12:51:50;;;;;;;;;;;;;;;18.53;62.72;100659.36;1677776;85;20471;-76
2022/09/12 12:54:40;;;;;;;;;;;;;;;18.51;62.79;100653.35;1681544;84;20534;-77
2022/09/12 12:57:28;;;;;;;;;;;;;;;18.52;62.88;100654.98;1674139;85;20519;-76
2022/09/12 13:00:14;;;;;;;;;;;;;;;18.52;62.94;100657.69;1673387;83;20544;-76